Randolph, Kansas
Current Conditions -  °F | °C
As of 10:52 AM on Saturday 22 Nov 2014 (Local Time) from KMHK Reporting Station
Haze Haze  
Wind Chill: 51°   Ceiling: 500
Heat Index: 51°   Visibility: 2.5mi
Dew Point: 50°   Wind: 8mph
Humidity: 96%   Direction: 210°SSW
Pressure: 29.88"   Gusts: NA
Location:  39.43°N, 96.76°W
Report Text: KMHK 221652Z 21007KT 2 1/2SM BR OVC005 11/10 A2988 RMK AO2 SLP123 T01060100
Loading
Personal Weather Stations






























Interactive Weather Map New forecast layout! Learn more

10-Day Weather Forecast

Advertisements
Track Severe Weather on mobile